createdAt,value
2022-11-17T18:03:18.617Z,96763.22
2022-11-17T18:04:20.989Z,96761.66
2022-11-17T18:05:22.925Z,96761.97
2022-11-17T18:06:24.763Z,96763.50
2022-11-17T18:07:26.669Z,96766.25
2022-11-17T18:08:29.275Z,96771.88
2022-11-17T18:09:31.213Z,96766.56
2022-11-17T18:10:33.123Z,96764.09
2022-11-17T18:11:35.791Z,96773.44
2022-11-17T18:12:37.947Z,96776.31
2022-11-17T18:13:42.953Z,96768.22
2022-11-17T18:14:45.950Z,96779.03
2022-11-17T18:15:48.213Z,96775.31
2022-11-17T18:16:51.195Z,96778.44
2022-11-17T18:17:53.180Z,96774.94
2022-11-17T18:19:02.075Z,96781.16
2022-11-17T18:20:04.699Z,96773.41
2022-11-17T18:21:14.029Z,96776.41
2022-11-17T18:22:15.977Z,96771.50
2022-11-17T18:23:17.981Z,96763.19
2022-11-17T18:24:19.869Z,96771.94
2022-11-17T18:25:21.785Z,96769.69
2022-11-17T18:26:30.381Z,96765.28
2022-11-17T18:27:32.333Z,96766.38
2022-11-17T18:28:34.275Z,96765.41
2022-11-17T18:29:36.255Z,96752.25
2022-11-17T18:30:38.187Z,96755.22
2022-11-17T18:31:40.425Z,96749.78
2022-11-17T18:32:42.419Z,96754.31
2022-11-17T18:33:45.339Z,96753.81
2022-11-17T18:34:47.752Z,96763.88
2022-11-17T18:35:49.628Z,96768.66
2022-11-17T18:36:55.666Z,96765.78
2022-11-17T18:37:57.687Z,96769.78
2022-11-17T18:38:59.708Z,96775.38
2022-11-17T18:40:01.626Z,96781.47
2022-11-17T18:41:15.079Z,96773.81
2022-11-17T18:42:17.144Z,96777.25
2022-11-17T18:43:19.262Z,96784.72
2022-11-17T18:44:21.190Z,96779.19
2022-11-17T18:45:23.125Z,96782.38
2022-11-17T18:46:28.907Z,96781.06
2022-11-17T18:47:30.847Z,96783.72
2022-11-17T18:48:38.991Z,96786.91
2022-11-17T18:49:41.003Z,96791.38
2022-11-17T18:51:17.272Z,96795.63
2022-11-17T18:52:07.758Z,96788.53
2022-11-17T18:53:10.126Z,96795.41
2022-11-17T18:54:13.778Z,96790.13
2022-11-17T18:55:15.605Z,96782.19
2022-11-17T18:56:21.336Z,96781.13
2022-11-17T18:57:23.367Z,96763.91
2022-11-17T18:58:25.238Z,96765.53
2022-11-17T18:59:27.042Z,96750.47
2022-11-17T19:00:28.822Z,96753.09
2022-11-17T19:01:31.531Z,96744.13
2022-11-17T19:02:35.238Z,96739.88
2022-11-17T19:03:38.896Z,96729.06
2022-11-17T19:04:40.794Z,96729.31
2022-11-17T19:05:43.055Z,96730.09
2022-11-17T19:06:45.402Z,96731.16
2022-11-17T19:07:48.092Z,96733.81
2022-11-17T19:08:51.059Z,96727.72
2022-11-17T19:09:53.037Z,96735.66
2022-11-17T19:10:55.357Z,96742.75
2022-11-17T19:11:57.306Z,96744.59
2022-11-17T19:12:59.204Z,96741.94
2022-11-17T19:14:02.346Z,96748.03
2022-11-17T19:15:04.773Z,96745.66
2022-11-17T19:16:15.275Z,96740.09
2022-11-17T19:17:17.522Z,96744.84
2022-11-17T19:18:20.039Z,96741.41
2022-11-17T19:19:21.962Z,96746.69
2022-11-17T19:20:25.788Z,96739.81
2022-11-17T19:21:31.664Z,96745.66
2022-11-17T19:22:35.323Z,96750.66
2022-11-17T19:23:45.384Z,96755.13
2022-11-17T19:24:50.081Z,96762.78
2022-11-17T19:25:52.042Z,96755.91
2022-11-17T19:26:54.140Z,96760.38
2022-11-17T19:27:56.102Z,96755.09
2022-11-17T19:29:01.582Z,96760.59
2022-11-17T19:30:04.067Z,96760.84
2022-11-17T19:31:09.873Z,96762.97
2022-11-17T19:32:11.810Z,96765.84
2022-11-17T19:33:13.737Z,96776.41
2022-11-17T19:34:16.283Z,96771.63
2022-11-17T19:35:22.443Z,96771.06
2022-11-17T19:36:31.766Z,96769.47
2022-11-17T19:37:33.700Z,96766.53
2022-11-17T19:38:38.577Z,96768.13
2022-11-17T19:39:40.519Z,96759.09
2022-11-17T19:40:42.434Z,96757.75
2022-11-17T19:41:46.279Z,96764.88
2022-11-17T19:42:51.638Z,96760.03
2022-11-17T19:44:00.166Z,96744.13
2022-11-17T19:45:02.153Z,96734.53
2022-11-17T19:46:08.256Z,96720.19
2022-11-17T19:47:10.319Z,96723.34
2022-11-17T19:48:12.368Z,96721.19
2022-11-17T19:49:14.598Z,96719.59
2022-11-17T19:50:17.190Z,96709.75
2022-11-17T19:51:29.320Z,96711.59
2022-11-17T19:52:31.169Z,96694.13
2022-11-17T19:53:33.235Z,96674.75
2022-11-17T19:54:35.238Z,96694.53
2022-11-17T19:55:37.166Z,96717.16
2022-11-17T19:56:39.248Z,96724.53
2022-11-17T19:57:41.145Z,96735.34
2022-11-17T19:58:43.953Z,96746.16
2022-11-17T19:59:45.960Z,96738.50
2022-11-17T20:00:51.002Z,96744.81
2022-11-17T20:01:53.083Z,96738.72
2022-11-17T20:02:55.027Z,96737.34
2022-11-17T20:04:00.202Z,96729.22
2022-11-17T20:05:05.385Z,96726.81
2022-11-17T20:06:14.767Z,96734.25
2022-11-17T20:07:16.779Z,96735.06
2022-11-17T20:08:18.707Z,96740.09
2022-11-17T20:09:20.714Z,96739.84
2022-11-17T20:10:22.735Z,96747.50
2022-11-17T20:11:28.226Z,96755.44
2022-11-17T20:12:34.117Z,96768.16
2022-11-17T20:13:37.580Z,96781.66
2022-11-17T20:14:39.541Z,96792.78
2022-11-17T20:15:41.455Z,96795.16
2022-11-17T20:16:43.490Z,96789.63
2022-11-17T20:17:45.950Z,96791.56
2022-11-17T20:18:54.353Z,96791.88
2022-11-17T20:19:56.308Z,96795.31
2022-11-17T20:20:58.568Z,96790.28
2022-11-17T20:22:00.544Z,96792.91
2022-11-17T20:23:02.522Z,96802.97
2022-11-17T20:24:04.704Z,96795.06
2022-11-17T20:25:07.281Z,96786.34
2022-11-17T20:26:21.838Z,96782.41
2022-11-17T20:27:23.811Z,96787.69
2022-11-17T20:28:25.742Z,96791.13
2022-11-17T20:29:27.663Z,96790.31
2022-11-17T20:30:29.577Z,96787.69
2022-11-17T20:31:34.572Z,96779.53
2022-11-17T20:32:37.140Z,96786.88
2022-11-17T20:33:41.041Z,96788.47
2022-11-17T20:34:43.067Z,96784.81
2022-11-17T20:35:45.021Z,96789.06
2022-11-17T20:36:46.954Z,96793.53
2022-11-17T20:37:48.870Z,96801.22
2022-11-17T20:39:00.443Z,96809.13
2022-11-17T20:40:02.360Z,96798.56
2022-11-17T20:41:05.518Z,96796.50
2022-11-17T20:42:07.408Z,96796.50
2022-11-17T20:43:09.297Z,96798.06
2022-11-17T20:44:26.486Z,96794.88
2022-11-17T20:45:28.372Z,96808.88
2022-11-17T20:46:30.346Z,96821.31
2022-11-17T20:47:32.265Z,96825.78
2022-11-17T20:48:35.494Z,96826.59
2022-11-17T20:49:37.858Z,96827.38
2022-11-17T20:50:39.784Z,96828.97
2022-11-17T20:51:41.973Z,96831.63
2022-11-17T20:52:43.864Z,96831.63
2022-11-17T20:53:46.192Z,96830.56
2022-11-17T20:54:48.114Z,96833.22
2022-11-17T20:55:50.160Z,96828.19
2022-11-17T20:56:52.120Z,96837.69
2022-11-17T20:57:53.986Z,96845.38
2022-11-17T20:58:55.898Z,96842.72
2022-11-17T20:59:57.746Z,96840.09
2022-11-17T21:01:06.741Z,96841.69
2022-11-17T21:02:11.822Z,96839.03
2022-11-17T21:03:13.999Z,96843.53
2022-11-17T21:04:15.972Z,96840.09
2022-11-17T21:05:17.909Z,96835.34
2022-11-17T21:06:23.066Z,96834.81
2022-11-17T21:07:25.097Z,96844.31
2022-11-17T21:08:30.915Z,96834.56
2022-11-17T21:09:32.880Z,96844.31
2022-11-17T21:10:34.871Z,96842.72
2022-11-17T21:11:55.308Z,96839.03
2022-11-17T21:12:58.904Z,96843.53
2022-11-17T21:14:01.353Z,96850.41
2022-11-17T21:15:03.415Z,96841.44
2022-11-17T21:16:12.730Z,96843.28
2022-11-17T21:17:34.645Z,96846.72
2022-11-17T21:18:44.989Z,96852.81
2022-11-17T21:19:46.808Z,96856.50
2022-11-17T21:20:48.678Z,96846.97
2022-11-17T21:21:54.174Z,96850.66
2022-11-17T21:22:56.108Z,96848.81
2022-11-17T21:23:58.117Z,96848.00
2022-11-17T21:25:00.045Z,96843.78
2022-11-17T21:26:21.217Z,96848.00
2022-11-17T21:27:23.245Z,96852.75
2022-11-17T21:28:25.132Z,96849.31
2022-11-17T21:29:27.642Z,96845.88
2022-11-17T21:30:29.561Z,96848.50
2022-11-17T21:31:33.252Z,96845.63
2022-11-17T21:32:35.115Z,96853.00
2022-11-17T21:33:37.663Z,96850.59
2022-11-17T21:34:39.602Z,96854.03
2022-11-17T21:35:41.621Z,96850.59
2022-11-17T21:36:43.733Z,96847.16
2022-11-17T21:37:45.864Z,96849.81
2022-11-17T21:38:48.073Z,96853.50
2022-11-17T21:39:52.255Z,96862.44
2022-11-17T21:40:54.120Z,96850.84
2022-11-17T21:41:56.035Z,96854.75
2022-11-17T21:42:59.863Z,96844.19
2022-11-17T21:44:03.301Z,96850.25
2022-11-17T21:45:05.859Z,96851.31
2022-11-17T21:46:15.001Z,96847.06
2022-11-17T21:47:18.351Z,96851.56
2022-11-17T21:48:20.531Z,96854.44
2022-11-17T21:49:22.364Z,96854.44
2022-11-17T21:50:24.270Z,96845.72
2022-11-17T21:51:35.166Z,96849.41
2022-11-17T21:52:37.024Z,96847.25
2022-11-17T21:53:38.904Z,96848.53
2022-11-17T21:54:40.729Z,96843.50
2022-11-17T21:55:42.575Z,96846.13
2022-11-17T21:56:45.959Z,96840.06
2022-11-17T21:57:51.055Z,96846.13
2022-11-17T21:59:13.387Z,96847.97
2022-11-17T22:00:16.490Z,96843.97
2022-11-17T22:01:18.539Z,96846.88
2022-11-17T22:02:22.100Z,96846.31
2022-11-17T22:03:24.882Z,96851.59
2022-11-17T22:04:26.699Z,96848.38
2022-11-17T22:05:28.587Z,96844.94
2022-11-17T22:06:30.607Z,96846.53
2022-11-17T22:07:32.591Z,96853.66
2022-11-17T22:08:40.196Z,96857.34
2022-11-17T22:09:42.138Z,96854.69
2022-11-17T22:10:43.975Z,96857.56
2022-11-17T22:11:45.902Z,96849.91
2022-11-17T22:12:47.810Z,96850.16
2022-11-17T22:13:49.649Z,96843.28
2022-11-17T22:14:51.619Z,96844.56
2022-11-17T22:15:53.469Z,96846.41
2022-11-17T22:16:56.475Z,96845.56
2022-11-17T22:17:58.334Z,96864.28
2022-11-17T22:19:00.415Z,96851.09
2022-11-17T22:20:02.241Z,96854.78
2022-11-17T22:21:04.991Z,96848.69
2022-11-17T22:22:08.111Z,96863.50
2022-11-17T22:23:09.939Z,96860.06
2022-11-17T22:24:13.023Z,96857.66
2022-11-17T22:25:42.904Z,96858.72
2022-11-17T22:26:38.562Z,96858.72
2022-11-17T22:27:40.447Z,96869.50
2022-11-17T22:28:42.265Z,96850.25
2022-11-17T22:29:44.179Z,96860.25
2022-11-17T22:30:46.007Z,96852.31
2022-11-17T22:31:49.245Z,96848.88
2022-11-17T22:32:51.276Z,96857.00
2022-11-17T22:33:53.426Z,96849.09
2022-11-17T22:34:55.619Z,96853.56
2022-11-17T22:36:02.261Z,96850.13
2022-11-17T22:37:04.237Z,96853.03
2022-11-17T22:38:06.082Z,96853.81
2022-11-17T22:39:09.261Z,96853.03
2022-11-17T22:40:11.455Z,96852.22
2022-11-17T22:41:14.174Z,96843.25
2022-11-17T22:42:18.677Z,96850.38
2022-11-17T22:43:20.516Z,96853.25
2022-11-17T22:44:22.376Z,96849.81
2022-11-17T22:45:24.308Z,96857.75
2022-11-17T22:46:28.528Z,96863.03
2022-11-17T22:47:31.562Z,96864.63
2022-11-17T22:48:36.694Z,96864.63
2022-11-17T22:49:38.549Z,96861.19
2022-11-17T22:50:40.397Z,96859.81
2022-11-17T22:52:01.102Z,96860.38
2022-11-17T22:53:03.431Z,96855.59
2022-11-17T22:54:07.739Z,96864.56
2022-11-17T22:55:09.580Z,96865.09
2022-11-17T22:56:11.675Z,96867.19
2022-11-17T22:57:13.538Z,96869.84
2022-11-17T22:58:16.917Z,96867.19
2022-11-17T22:59:19.788Z,96867.19
2022-11-17T23:00:21.808Z,96865.59
2022-11-17T23:01:23.765Z,96864.78
2022-11-17T23:02:25.590Z,96865.59
2022-11-17T23:03:27.442Z,96865.34
2022-11-17T23:04:29.288Z,96865.59
2022-11-17T23:05:31.946Z,96862.16
2022-11-17T23:06:33.786Z,96861.31
2022-11-17T23:07:35.675Z,96874.31
2022-11-17T23:08:37.543Z,96871.66
2022-11-17T23:09:39.436Z,96869.03
2022-11-17T23:10:41.296Z,96870.28
2022-11-17T23:11:43.329Z,96873.72
2022-11-17T23:12:45.298Z,96870.28
2022-11-17T23:13:47.203Z,96876.34
2022-11-17T23:14:49.076Z,96872.13
2022-11-17T23:15:50.947Z,96877.16
2022-11-17T23:16:52.815Z,96871.31
2022-11-17T23:17:55.380Z,96876.84
2022-11-17T23:18:57.683Z,96873.97
2022-11-17T23:19:59.876Z,96873.97
2022-11-17T23:21:07.194Z,96876.84
2022-11-17T23:22:09.070Z,96885.56
2022-11-17T23:23:10.908Z,96881.56
2022-11-17T23:24:14.558Z,96886.03
2022-11-17T23:25:16.439Z,96870.78
2022-11-17T23:26:18.452Z,96869.16
2022-11-17T23:27:20.329Z,96868.13
2022-11-17T23:28:22.209Z,96868.38
2022-11-17T23:29:24.072Z,96866.28
2022-11-17T23:30:25.965Z,96861.81
2022-11-17T23:31:28.112Z,96873.16
2022-11-17T23:32:29.949Z,96870.53
2022-11-17T23:33:37.640Z,96870.53
2022-11-17T23:34:39.423Z,96875.56
2022-11-17T23:35:41.262Z,96870.53
2022-11-17T23:36:43.081Z,96869.72
2022-11-17T23:37:44.911Z,96870.53
2022-11-17T23:38:47.821Z,96872.13
2022-11-17T23:39:49.688Z,96875.00
2022-11-17T23:40:52.792Z,96877.88
2022-11-17T23:41:54.614Z,96874.44
2022-11-17T23:42:56.482Z,96883.16
2022-11-17T23:43:58.350Z,96872.84
2022-11-17T23:45:00.171Z,96871.56
2022-11-17T23:46:09.656Z,96880.28
2022-11-17T23:47:12.367Z,96878.94
2022-11-17T23:48:14.181Z,96875.00
2022-11-17T23:49:16.322Z,96876.03
2022-11-17T23:50:18.591Z,96873.16
2022-11-17T23:51:23.696Z,96868.69
2022-11-17T23:52:25.679Z,96856.53
2022-11-17T23:53:27.479Z,96856.28
2022-11-17T23:54:29.382Z,96855.50
2022-11-17T23:55:31.190Z,96851.81
2022-11-17T23:56:34.764Z,96858.69
2022-11-17T23:57:36.637Z,96855.25
2022-11-17T23:58:39.418Z,96853.41
2022-11-17T23:59:41.351Z,96863.97
